Fanning Springs, Florida
Current Conditions -  °F | °C
As of 11:53 AM on Thursday 30 Oct 2014 (Local Time) from KGNV Reporting Station
Overcast Overcast  
Wind Chill: 71°   Ceiling: 1000
Heat Index: 71°   Visibility: 10mi
Dew Point: 65°   Wind: 5mph
Humidity: 81%   Direction: 180°S
Pressure: 30"   Gusts: NA
Location:  29.655°N, 82.7854°W
Report Text: KGNV 301553Z 18004KT 10SM BKN010 OVC085 22/18 A3000 RMK AO2 RAB41E53 SLP157 P0000 T02170183
Loading
Personal Weather Stations






























Interactive Weather Map
Tropical Storm Tracking
New forecast layout! Learn more

10-Day Weather Forecast

Advertisements
Track Severe Weather on mobile